sensor_id;sensor_type;location;lat;lon;timestamp;P1;durP1;ratioP1;P2;durP2;ratioP2
54875;SDS011;40764;48.472;8.166;2023-07-13T00:05:37;5.83;;;2.00;;
54875;SDS011;40764;48.472;8.166;2023-07-13T00:11:38;4.38;;;1.90;;
54875;SDS011;40764;48.472;8.166;2023-07-13T00:17:39;4.73;;;2.17;;
54875;SDS011;40764;48.472;8.166;2023-07-13T00:29:41;4.57;;;1.73;;
54875;SDS011;40764;48.472;8.166;2023-07-13T00:35:42;3.60;;;1.50;;
54875;SDS011;40764;48.472;8.166;2023-07-13T00:47:44;9.18;;;1.73;;
54875;SDS011;40764;48.472;8.166;2023-07-13T00:53:44;5.93;;;1.55;;
54875;SDS011;40764;48.472;8.166;2023-07-13T00:59:46;6.73;;;1.83;;
54875;SDS011;40764;48.472;8.166;2023-07-13T01:05:49;10.98;;;1.83;;
54875;SDS011;40764;48.472;8.166;2023-07-13T01:11:50;8.45;;;1.98;;
54875;SDS011;40764;48.472;8.166;2023-07-13T01:17:50;11.52;;;2.25;;
54875;SDS011;40764;48.472;8.166;2023-07-13T01:23:51;9.43;;;1.90;;
54875;SDS011;40764;48.472;8.166;2023-07-13T01:29:52;3.40;;;1.63;;
54875;SDS011;40764;48.472;8.166;2023-07-13T01:35:53;6.68;;;1.73;;
54875;SDS011;40764;48.472;8.166;2023-07-13T01:41:53;7.53;;;1.90;;
54875;SDS011;40764;48.472;8.166;2023-07-13T01:47:54;4.45;;;1.55;;
54875;SDS011;40764;48.472;8.166;2023-07-13T01:53:54;7.57;;;2.55;;
54875;SDS011;40764;48.472;8.166;2023-07-13T01:59:54;5.87;;;1.70;;
54875;SDS011;40764;48.472;8.166;2023-07-13T02:05:55;15.05;;;2.60;;
54875;SDS011;40764;48.472;8.166;2023-07-13T02:11:55;4.75;;;2.08;;
54875;SDS011;40764;48.472;8.166;2023-07-13T02:17:55;3.90;;;1.83;;
54875;SDS011;40764;48.472;8.166;2023-07-13T02:23:56;3.73;;;1.93;;
54875;SDS011;40764;48.472;8.166;2023-07-13T02:29:57;3.13;;;1.87;;
54875;SDS011;40764;48.472;8.166;2023-07-13T02:35:58;8.18;;;2.00;;
54875;SDS011;40764;48.472;8.166;2023-07-13T02:41:58;6.70;;;1.98;;
54875;SDS011;40764;48.472;8.166;2023-07-13T02:48:00;6.75;;;2.15;;
54875;SDS011;40764;48.472;8.166;2023-07-13T02:54:01;3.60;;;1.83;;
54875;SDS011;40764;48.472;8.166;2023-07-13T03:00:02;10.73;;;2.15;;
54875;SDS011;40764;48.472;8.166;2023-07-13T03:06:07;4.03;;;1.70;;
54875;SDS011;40764;48.472;8.166;2023-07-13T03:12:08;6.80;;;2.30;;
54875;SDS011;40764;48.472;8.166;2023-07-13T03:18:08;6.78;;;2.17;;
54875;SDS011;40764;48.472;8.166;2023-07-13T03:24:09;8.40;;;2.67;;
54875;SDS011;40764;48.472;8.166;2023-07-13T03:30:09;4.50;;;2.37;;
54875;SDS011;40764;48.472;8.166;2023-07-13T03:36:13;4.67;;;2.20;;
54875;SDS011;40764;48.472;8.166;2023-07-13T03:42:17;13.40;;;2.70;;
54875;SDS011;40764;48.472;8.166;2023-07-13T03:48:17;9.45;;;1.88;;
54875;SDS011;40764;48.472;8.166;2023-07-13T03:54:17;5.50;;;1.98;;
54875;SDS011;40764;48.472;8.166;2023-07-13T04:00:18;8.57;;;2.50;;
54875;SDS011;40764;48.472;8.166;2023-07-13T04:06:20;7.30;;;2.47;;
54875;SDS011;40764;48.472;8.166;2023-07-13T04:12:24;9.35;;;2.60;;
54875;SDS011;40764;48.472;8.166;2023-07-13T04:18:24;4.25;;;2.10;;
54875;SDS011;40764;48.472;8.166;2023-07-13T04:24:24;7.70;;;2.17;;
54875;SDS011;40764;48.472;8.166;2023-07-13T04:30:25;10.32;;;2.38;;
54875;SDS011;40764;48.472;8.166;2023-07-13T04:36:26;7.17;;;2.20;;
54875;SDS011;40764;48.472;8.166;2023-07-13T04:42:28;11.68;;;2.42;;
54875;SDS011;40764;48.472;8.166;2023-07-13T04:48:29;7.13;;;3.17;;
54875;SDS011;40764;48.472;8.166;2023-07-13T04:54:30;20.17;;;2.83;;
54875;SDS011;40764;48.472;8.166;2023-07-13T05:00:30;7.97;;;2.15;;
54875;SDS011;40764;48.472;8.166;2023-07-13T05:06:31;6.50;;;2.80;;
54875;SDS011;40764;48.472;8.166;2023-07-13T05:12:32;8.40;;;2.83;;
54875;SDS011;40764;48.472;8.166;2023-07-13T05:18:32;9.43;;;2.28;;
54875;SDS011;40764;48.472;8.166;2023-07-13T05:24:32;7.15;;;2.42;;
54875;SDS011;40764;48.472;8.166;2023-07-13T05:30:32;9.05;;;2.53;;
54875;SDS011;40764;48.472;8.166;2023-07-13T05:36:33;10.40;;;2.30;;
54875;SDS011;40764;48.472;8.166;2023-07-13T05:42:34;11.30;;;3.27;;
54875;SDS011;40764;48.472;8.166;2023-07-13T05:48:34;14.27;;;2.38;;
54875;SDS011;40764;48.472;8.166;2023-07-13T05:54:35;11.90;;;2.35;;
54875;SDS011;40764;48.472;8.166;2023-07-13T06:00:35;8.50;;;2.20;;
54875;SDS011;40764;48.472;8.166;2023-07-13T06:06:35;8.30;;;2.80;;
54875;SDS011;40764;48.472;8.166;2023-07-13T06:12:36;15.30;;;2.78;;
54875;SDS011;40764;48.472;8.166;2023-07-13T06:18:36;11.52;;;2.47;;
54875;SDS011;40764;48.472;8.166;2023-07-13T06:24:37;10.45;;;2.28;;
54875;SDS011;40764;48.472;8.166;2023-07-13T06:30:38;4.72;;;2.25;;
54875;SDS011;40764;48.472;8.166;2023-07-13T06:36:39;7.90;;;1.90;;
54875;SDS011;40764;48.472;8.166;2023-07-13T06:42:39;9.23;;;1.80;;
54875;SDS011;40764;48.472;8.166;2023-07-13T06:48:40;5.30;;;2.03;;
54875;SDS011;40764;48.472;8.166;2023-07-13T06:54:40;6.22;;;1.80;;
54875;SDS011;40764;48.472;8.166;2023-07-13T07:00:40;15.45;;;3.50;;
54875;SDS011;40764;48.472;8.166;2023-07-13T07:06:41;8.93;;;1.93;;
54875;SDS011;40764;48.472;8.166;2023-07-13T07:12:41;9.02;;;2.03;;
54875;SDS011;40764;48.472;8.166;2023-07-13T07:18:42;9.55;;;1.80;;
54875;SDS011;40764;48.472;8.166;2023-07-13T07:24:42;7.60;;;2.97;;
54875;SDS011;40764;48.472;8.166;2023-07-13T07:30:43;12.30;;;2.70;;
54875;SDS011;40764;48.472;8.166;2023-07-13T07:36:47;3.50;;;2.10;;
54875;SDS011;40764;48.472;8.166;2023-07-13T07:42:47;10.88;;;1.88;;
54875;SDS011;40764;48.472;8.166;2023-07-13T07:48:47;7.77;;;1.80;;
54875;SDS011;40764;48.472;8.166;2023-07-13T07:54:48;7.97;;;1.60;;
54875;SDS011;40764;48.472;8.166;2023-07-13T08:00:48;4.68;;;1.55;;
54875;SDS011;40764;48.472;8.166;2023-07-13T08:06:48;11.52;;;1.98;;
54875;SDS011;40764;48.472;8.166;2023-07-13T08:12:49;7.57;;;1.63;;
54875;SDS011;40764;48.472;8.166;2023-07-13T08:18:49;5.50;;;1.50;;
54875;SDS011;40764;48.472;8.166;2023-07-13T08:24:49;3.87;;;1.60;;
54875;SDS011;40764;48.472;8.166;2023-07-13T08:31:00;6.68;;;1.70;;
54875;SDS011;40764;48.472;8.166;2023-07-13T08:37:01;6.10;;;1.65;;
54875;SDS011;40764;48.472;8.166;2023-07-13T08:55:15;3.90;;;1.20;;
54875;SDS011;40764;48.472;8.166;2023-07-13T09:01:22;6.60;;;1.58;;
54875;SDS011;40764;48.472;8.166;2023-07-13T09:07:40;8.48;;;1.60;;
54875;SDS011;40764;48.472;8.166;2023-07-13T09:26:38;7.88;;;1.70;;
54875;SDS011;40764;48.472;8.166;2023-07-13T09:32:38;15.63;;;1.70;;
54875;SDS011;40764;48.472;8.166;2023-07-13T09:38:43;9.73;;;1.80;;
54875;SDS011;40764;48.472;8.166;2023-07-13T09:50:47;3.83;;;1.30;;
54875;SDS011;40764;48.472;8.166;2023-07-13T09:56:48;1.93;;;1.20;;
54875;SDS011;40764;48.472;8.166;2023-07-13T10:09:18;5.07;;;1.38;;
54875;SDS011;40764;48.472;8.166;2023-07-13T10:15:20;7.93;;;1.58;;
54875;SDS011;40764;48.472;8.166;2023-07-13T10:21:26;11.25;;;1.83;;
54875;SDS011;40764;48.472;8.166;2023-07-13T10:27:34;4.72;;;1.40;;
54875;SDS011;40764;48.472;8.166;2023-07-13T10:33:35;6.05;;;1.38;;
54875;SDS011;40764;48.472;8.166;2023-07-13T10:39:36;3.40;;;1.23;;
54875;SDS011;40764;48.472;8.166;2023-07-13T10:45:38;3.63;;;1.20;;
54875;SDS011;40764;48.472;8.166;2023-07-13T10:51:39;5.97;;;1.50;;
54875;SDS011;40764;48.472;8.166;2023-07-13T10:57:41;3.42;;;1.30;;
54875;SDS011;40764;48.472;8.166;2023-07-13T11:09:43;10.27;;;1.30;;
54875;SDS011;40764;48.472;8.166;2023-07-13T11:15:47;4.72;;;1.60;;
54875;SDS011;40764;48.472;8.166;2023-07-13T11:34:12;2.10;;;1.15;;
54875;SDS011;40764;48.472;8.166;2023-07-13T11:40:15;6.72;;;1.45;;
54875;SDS011;40764;48.472;8.166;2023-07-13T11:46:18;6.33;;;1.77;;
54875;SDS011;40764;48.472;8.166;2023-07-13T11:52:22;5.93;;;1.35;;
54875;SDS011;40764;48.472;8.166;2023-07-13T11:58:26;10.48;;;1.70;;
54875;SDS011;40764;48.472;8.166;2023-07-13T12:04:29;6.15;;;1.50;;
54875;SDS011;40764;48.472;8.166;2023-07-13T12:10:32;3.88;;;1.80;;
54875;SDS011;40764;48.472;8.166;2023-07-13T12:16:33;4.07;;;1.05;;
54875;SDS011;40764;48.472;8.166;2023-07-13T12:22:33;4.23;;;1.70;;
54875;SDS011;40764;48.472;8.166;2023-07-13T12:28:48;3.90;;;1.33;;
54875;SDS011;40764;48.472;8.166;2023-07-13T12:34:56;3.38;;;1.50;;
54875;SDS011;40764;48.472;8.166;2023-07-13T12:41:14;8.45;;;1.52;;
54875;SDS011;40764;48.472;8.166;2023-07-13T12:47:15;13.45;;;1.98;;
54875;SDS011;40764;48.472;8.166;2023-07-13T12:53:20;4.10;;;1.20;;
54875;SDS011;40764;48.472;8.166;2023-07-13T12:59:23;4.93;;;1.63;;
54875;SDS011;40764;48.472;8.166;2023-07-13T13:05:29;3.97;;;1.52;;
54875;SDS011;40764;48.472;8.166;2023-07-13T13:11:31;14.55;;;2.47;;
54875;SDS011;40764;48.472;8.166;2023-07-13T13:23:32;6.93;;;1.70;;
54875;SDS011;40764;48.472;8.166;2023-07-13T13:29:33;10.60;;;2.80;;
54875;SDS011;40764;48.472;8.166;2023-07-13T13:35:35;14.43;;;3.22;;
54875;SDS011;40764;48.472;8.166;2023-07-13T13:41:36;6.10;;;1.55;;
54875;SDS011;40764;48.472;8.166;2023-07-13T13:47:36;4.85;;;1.83;;
54875;SDS011;40764;48.472;8.166;2023-07-13T13:53:36;5.10;;;1.40;;
54875;SDS011;40764;48.472;8.166;2023-07-13T13:59:38;6.00;;;1.52;;
54875;SDS011;40764;48.472;8.166;2023-07-13T14:05:42;8.68;;;1.92;;
54875;SDS011;40764;48.472;8.166;2023-07-13T14:11:43;9.40;;;1.60;;
54875;SDS011;40764;48.472;8.166;2023-07-13T14:17:44;4.40;;;1.50;;
54875;SDS011;40764;48.472;8.166;2023-07-13T14:23:45;4.37;;;1.67;;
54875;SDS011;40764;48.472;8.166;2023-07-13T14:29:47;4.55;;;1.50;;
54875;SDS011;40764;48.472;8.166;2023-07-13T14:35:49;4.70;;;1.77;;
54875;SDS011;40764;48.472;8.166;2023-07-13T14:41:51;10.35;;;2.22;;
54875;SDS011;40764;48.472;8.166;2023-07-13T14:47:53;5.63;;;1.35;;
54875;SDS011;40764;48.472;8.166;2023-07-13T14:53:53;11.67;;;1.90;;
54875;SDS011;40764;48.472;8.166;2023-07-13T14:59:54;8.82;;;1.55;;
54875;SDS011;40764;48.472;8.166;2023-07-13T15:05:54;6.03;;;1.35;;
54875;SDS011;40764;48.472;8.166;2023-07-13T15:11:55;5.83;;;1.50;;
54875;SDS011;40764;48.472;8.166;2023-07-13T15:17:56;3.70;;;1.50;;
54875;SDS011;40764;48.472;8.166;2023-07-13T15:23:56;5.17;;;1.57;;
54875;SDS011;40764;48.472;8.166;2023-07-13T15:29:57;5.28;;;1.42;;
54875;SDS011;40764;48.472;8.166;2023-07-13T15:35:57;5.10;;;1.10;;
54875;SDS011;40764;48.472;8.166;2023-07-13T15:41:59;2.10;;;1.10;;
54875;SDS011;40764;48.472;8.166;2023-07-13T15:47:59;6.55;;;1.27;;
54875;SDS011;40764;48.472;8.166;2023-07-13T15:54:00;8.73;;;1.20;;
54875;SDS011;40764;48.472;8.166;2023-07-13T16:00:12;2.15;;;1.10;;
54875;SDS011;40764;48.472;8.166;2023-07-13T16:06:22;2.42;;;1.20;;
54875;SDS011;40764;48.472;8.166;2023-07-13T16:12:26;6.30;;;1.67;;
54875;SDS011;40764;48.472;8.166;2023-07-13T16:18:27;5.32;;;1.40;;
54875;SDS011;40764;48.472;8.166;2023-07-13T16:30:28;5.35;;;1.55;;
54875;SDS011;40764;48.472;8.166;2023-07-13T16:36:31;5.45;;;1.30;;
54875;SDS011;40764;48.472;8.166;2023-07-13T16:42:33;5.22;;;1.52;;
54875;SDS011;40764;48.472;8.166;2023-07-13T16:48:33;4.50;;;1.60;;
54875;SDS011;40764;48.472;8.166;2023-07-13T16:54:35;6.40;;;1.50;;
54875;SDS011;40764;48.472;8.166;2023-07-13T17:00:37;8.82;;;1.77;;
54875;SDS011;40764;48.472;8.166;2023-07-13T17:06:38;5.88;;;1.60;;
54875;SDS011;40764;48.472;8.166;2023-07-13T17:12:40;10.70;;;1.80;;
54875;SDS011;40764;48.472;8.166;2023-07-13T17:18:40;9.90;;;2.17;;
54875;SDS011;40764;48.472;8.166;2023-07-13T17:24:41;3.60;;;1.30;;
54875;SDS011;40764;48.472;8.166;2023-07-13T17:30:44;5.00;;;1.45;;
54875;SDS011;40764;48.472;8.166;2023-07-13T17:36:44;5.37;;;1.67;;
54875;SDS011;40764;48.472;8.166;2023-07-13T17:42:45;6.30;;;2.13;;
54875;SDS011;40764;48.472;8.166;2023-07-13T17:48:46;3.58;;;1.42;;
54875;SDS011;40764;48.472;8.166;2023-07-13T17:54:48;6.32;;;1.50;;
54875;SDS011;40764;48.472;8.166;2023-07-13T18:00:50;3.53;;;1.60;;
54875;SDS011;40764;48.472;8.166;2023-07-13T18:06:50;8.00;;;1.73;;
54875;SDS011;40764;48.472;8.166;2023-07-13T18:12:56;3.97;;;1.83;;
54875;SDS011;40764;48.472;8.166;2023-07-13T18:18:56;9.43;;;1.80;;
54875;SDS011;40764;48.472;8.166;2023-07-13T18:24:59;5.93;;;1.90;;
54875;SDS011;40764;48.472;8.166;2023-07-13T18:31:03;9.18;;;2.17;;
54875;SDS011;40764;48.472;8.166;2023-07-13T18:37:07;4.90;;;1.77;;
54875;SDS011;40764;48.472;8.166;2023-07-13T18:43:22;7.70;;;1.88;;
54875;SDS011;40764;48.472;8.166;2023-07-13T18:55:24;4.75;;;1.98;;
54875;SDS011;40764;48.472;8.166;2023-07-13T19:07:31;7.72;;;1.98;;
54875;SDS011;40764;48.472;8.166;2023-07-13T19:19:35;6.82;;;2.00;;
54875;SDS011;40764;48.472;8.166;2023-07-13T19:25:36;3.33;;;1.90;;
54875;SDS011;40764;48.472;8.166;2023-07-13T19:31:37;6.38;;;2.03;;
54875;SDS011;40764;48.472;8.166;2023-07-13T19:37:38;5.23;;;1.90;;
54875;SDS011;40764;48.472;8.166;2023-07-13T19:43:39;6.63;;;2.30;;
54875;SDS011;40764;48.472;8.166;2023-07-13T19:49:40;6.13;;;2.17;;
54875;SDS011;40764;48.472;8.166;2023-07-13T19:55:43;6.03;;;2.63;;
54875;SDS011;40764;48.472;8.166;2023-07-13T20:01:43;6.83;;;2.23;;
54875;SDS011;40764;48.472;8.166;2023-07-13T20:07:44;10.53;;;2.00;;
54875;SDS011;40764;48.472;8.166;2023-07-13T20:13:49;9.15;;;2.45;;
54875;SDS011;40764;48.472;8.166;2023-07-13T20:19:49;7.18;;;1.95;;
54875;SDS011;40764;48.472;8.166;2023-07-13T20:25:50;15.63;;;2.43;;
54875;SDS011;40764;48.472;8.166;2023-07-13T20:31:50;10.13;;;2.60;;
54875;SDS011;40764;48.472;8.166;2023-07-13T20:37:51;7.07;;;2.47;;
54875;SDS011;40764;48.472;8.166;2023-07-13T20:43:52;7.40;;;2.30;;
54875;SDS011;40764;48.472;8.166;2023-07-13T20:49:52;5.30;;;2.08;;
54875;SDS011;40764;48.472;8.166;2023-07-13T20:55:53;9.37;;;2.73;;
54875;SDS011;40764;48.472;8.166;2023-07-13T21:01:53;6.37;;;2.20;;
54875;SDS011;40764;48.472;8.166;2023-07-13T21:07:54;7.37;;;1.90;;
54875;SDS011;40764;48.472;8.166;2023-07-13T21:13:54;3.17;;;2.13;;
54875;SDS011;40764;48.472;8.166;2023-07-13T21:19:55;7.70;;;2.33;;
54875;SDS011;40764;48.472;8.166;2023-07-13T21:25:56;5.63;;;2.90;;
54875;SDS011;40764;48.472;8.166;2023-07-13T21:37:58;7.53;;;2.50;;
54875;SDS011;40764;48.472;8.166;2023-07-13T21:44:01;10.18;;;2.42;;
54875;SDS011;40764;48.472;8.166;2023-07-13T21:50:05;6.40;;;2.60;;
54875;SDS011;40764;48.472;8.166;2023-07-13T21:56:08;5.00;;;2.30;;
54875;SDS011;40764;48.472;8.166;2023-07-13T22:02:10;9.98;;;2.65;;
54875;SDS011;40764;48.472;8.166;2023-07-13T22:08:12;2.80;;;2.00;;
54875;SDS011;40764;48.472;8.166;2023-07-13T22:14:13;6.67;;;2.77;;
54875;SDS011;40764;48.472;8.166;2023-07-13T22:20:19;10.30;;;2.50;;
54875;SDS011;40764;48.472;8.166;2023-07-13T22:26:25;8.95;;;2.63;;
54875;SDS011;40764;48.472;8.166;2023-07-13T22:32:28;3.45;;;1.95;;
54875;SDS011;40764;48.472;8.166;2023-07-13T22:38:29;6.37;;;2.07;;
54875;SDS011;40764;48.472;8.166;2023-07-13T22:44:32;12.60;;;3.05;;
54875;SDS011;40764;48.472;8.166;2023-07-13T22:50:34;20.83;;;3.20;;
54875;SDS011;40764;48.472;8.166;2023-07-13T22:56:34;4.70;;;2.40;;
54875;SDS011;40764;48.472;8.166;2023-07-13T23:02:35;7.30;;;2.33;;
54875;SDS011;40764;48.472;8.166;2023-07-13T23:08:36;3.40;;;2.50;;
54875;SDS011;40764;48.472;8.166;2023-07-13T23:14:36;8.60;;;2.90;;
54875;SDS011;40764;48.472;8.166;2023-07-13T23:20:39;6.80;;;2.25;;
54875;SDS011;40764;48.472;8.166;2023-07-13T23:26:40;8.70;;;3.27;;
54875;SDS011;40764;48.472;8.166;2023-07-13T23:32:40;9.85;;;3.92;;
54875;SDS011;40764;48.472;8.166;2023-07-13T23:38:42;6.60;;;2.92;;
54875;SDS011;40764;48.472;8.166;2023-07-13T23:44:42;6.70;;;2.70;;
54875;SDS011;40764;48.472;8.166;2023-07-13T23:50:43;4.10;;;2.47;;
54875;SDS011;40764;48.472;8.166;2023-07-13T23:56:44;9.15;;;2.63;;
